sensor_id;sensor_type;location;lat;lon;timestamp;P1;durP1;ratioP1;P2;durP2;ratioP2
2544;SDS011;36212;48.838;9.142;2023-07-22T00:02:06;3.03;;;2.83;;
2544;SDS011;36212;48.838;9.142;2023-07-22T00:04:38;3.60;;;3.03;;
2544;SDS011;36212;48.838;9.142;2023-07-22T00:07:10;3.65;;;3.30;;
2544;SDS011;36212;48.838;9.142;2023-07-22T00:09:42;3.55;;;3.35;;
2544;SDS011;36212;48.838;9.142;2023-07-22T00:12:15;4.95;;;3.30;;
2544;SDS011;36212;48.838;9.142;2023-07-22T00:14:47;3.17;;;2.90;;
2544;SDS011;36212;48.838;9.142;2023-07-22T00:17:19;3.80;;;3.50;;
2544;SDS011;36212;48.838;9.142;2023-07-22T00:19:54;3.17;;;2.97;;
2544;SDS011;36212;48.838;9.142;2023-07-22T00:22:26;3.00;;;2.80;;
2544;SDS011;36212;48.838;9.142;2023-07-22T00:24:59;3.72;;;3.53;;
2544;SDS011;36212;48.838;9.142;2023-07-22T00:27:32;3.13;;;2.92;;
2544;SDS011;36212;48.838;9.142;2023-07-22T00:30:05;3.65;;;3.45;;
2544;SDS011;36212;48.838;9.142;2023-07-22T00:32:39;3.10;;;2.90;;
2544;SDS011;36212;48.838;9.142;2023-07-22T00:35:13;3.45;;;3.15;;
2544;SDS011;36212;48.838;9.142;2023-07-22T00:37:45;2.83;;;2.67;;
2544;SDS011;36212;48.838;9.142;2023-07-22T00:40:17;3.55;;;3.03;;
2544;SDS011;36212;48.838;9.142;2023-07-22T00:42:50;2.80;;;2.60;;
2544;SDS011;36212;48.838;9.142;2023-07-22T00:45:23;3.08;;;2.80;;
2544;SDS011;36212;48.838;9.142;2023-07-22T00:47:55;3.40;;;3.20;;
2544;SDS011;36212;48.838;9.142;2023-07-22T00:50:27;2.70;;;2.60;;
2544;SDS011;36212;48.838;9.142;2023-07-22T00:52:59;3.33;;;3.03;;
2544;SDS011;36212;48.838;9.142;2023-07-22T00:55:32;3.15;;;2.85;;
2544;SDS011;36212;48.838;9.142;2023-07-22T00:58:09;3.15;;;2.95;;
2544;SDS011;36212;48.838;9.142;2023-07-22T01:00:41;3.45;;;3.25;;
2544;SDS011;36212;48.838;9.142;2023-07-22T01:03:13;3.50;;;3.20;;
2544;SDS011;36212;48.838;9.142;2023-07-22T01:05:46;4.00;;;3.72;;
2544;SDS011;36212;48.838;9.142;2023-07-22T01:08:19;3.95;;;3.30;;
2544;SDS011;36212;48.838;9.142;2023-07-22T01:10:51;3.45;;;3.25;;
2544;SDS011;36212;48.838;9.142;2023-07-22T01:13:24;3.53;;;3.17;;
2544;SDS011;36212;48.838;9.142;2023-07-22T01:15:57;3.80;;;3.50;;
2544;SDS011;36212;48.838;9.142;2023-07-22T01:18:29;3.65;;;3.35;;
2544;SDS011;36212;48.838;9.142;2023-07-22T01:21:03;3.30;;;3.10;;
2544;SDS011;36212;48.838;9.142;2023-07-22T01:23:38;3.38;;;3.08;;
2544;SDS011;36212;48.838;9.142;2023-07-22T01:26:11;3.70;;;3.45;;
2544;SDS011;36212;48.838;9.142;2023-07-22T01:28:44;3.80;;;3.50;;
2544;SDS011;36212;48.838;9.142;2023-07-22T01:31:17;3.20;;;3.00;;
2544;SDS011;36212;48.838;9.142;2023-07-22T01:33:49;3.47;;;3.20;;
2544;SDS011;36212;48.838;9.142;2023-07-22T01:36:22;3.30;;;3.10;;
2544;SDS011;36212;48.838;9.142;2023-07-22T01:38:55;3.33;;;3.13;;
2544;SDS011;36212;48.838;9.142;2023-07-22T01:41:27;3.67;;;3.35;;
2544;SDS011;36212;48.838;9.142;2023-07-22T01:43:59;3.13;;;2.92;;
2544;SDS011;36212;48.838;9.142;2023-07-22T01:46:31;7.03;;;3.67;;
2544;SDS011;36212;48.838;9.142;2023-07-22T01:49:04;4.28;;;3.50;;
2544;SDS011;36212;48.838;9.142;2023-07-22T01:51:42;3.22;;;2.97;;
2544;SDS011;36212;48.838;9.142;2023-07-22T01:54:15;3.00;;;2.80;;
2544;SDS011;36212;48.838;9.142;2023-07-22T01:56:47;3.65;;;3.17;;
2544;SDS011;36212;48.838;9.142;2023-07-22T01:59:19;3.33;;;3.13;;
2544;SDS011;36212;48.838;9.142;2023-07-22T02:01:52;3.30;;;3.10;;
2544;SDS011;36212;48.838;9.142;2023-07-22T02:04:24;3.05;;;2.85;;
2544;SDS011;36212;48.838;9.142;2023-07-22T02:06:56;3.50;;;3.30;;
2544;SDS011;36212;48.838;9.142;2023-07-22T02:09:28;4.00;;;3.33;;
2544;SDS011;36212;48.838;9.142;2023-07-22T02:12:02;3.88;;;3.58;;
2544;SDS011;36212;48.838;9.142;2023-07-22T02:14:34;3.30;;;3.10;;
2544;SDS011;36212;48.838;9.142;2023-07-22T02:17:07;3.70;;;3.50;;
2544;SDS011;36212;48.838;9.142;2023-07-22T02:19:40;3.30;;;3.10;;
2544;SDS011;36212;48.838;9.142;2023-07-22T02:22:13;6.25;;;3.15;;
2544;SDS011;36212;48.838;9.142;2023-07-22T02:24:46;3.65;;;3.35;;
2544;SDS011;36212;48.838;9.142;2023-07-22T02:27:18;3.10;;;2.90;;
2544;SDS011;36212;48.838;9.142;2023-07-22T02:29:50;3.53;;;3.33;;
2544;SDS011;36212;48.838;9.142;2023-07-22T02:32:23;5.13;;;4.03;;
2544;SDS011;36212;48.838;9.142;2023-07-22T02:34:55;3.78;;;3.47;;
2544;SDS011;36212;48.838;9.142;2023-07-22T02:37:27;3.35;;;3.05;;
2544;SDS011;36212;48.838;9.142;2023-07-22T02:39:59;3.80;;;3.50;;
2544;SDS011;36212;48.838;9.142;2023-07-22T02:42:38;3.65;;;3.35;;
2544;SDS011;36212;48.838;9.142;2023-07-22T02:45:11;4.03;;;3.63;;
2544;SDS011;36212;48.838;9.142;2023-07-22T02:47:44;3.80;;;3.50;;
2544;SDS011;36212;48.838;9.142;2023-07-22T02:50:16;3.63;;;3.40;;
2544;SDS011;36212;48.838;9.142;2023-07-22T02:52:48;3.60;;;3.40;;
2544;SDS011;36212;48.838;9.142;2023-07-22T02:55:21;24.10;;;3.55;;
2544;SDS011;36212;48.838;9.142;2023-07-22T02:57:54;3.28;;;3.08;;
2544;SDS011;36212;48.838;9.142;2023-07-22T03:00:26;4.10;;;3.80;;
2544;SDS011;36212;48.838;9.142;2023-07-22T03:02:59;4.07;;;3.78;;
2544;SDS011;36212;48.838;9.142;2023-07-22T03:05:35;3.60;;;3.40;;
2544;SDS011;36212;48.838;9.142;2023-07-22T03:08:07;4.20;;;3.80;;
2544;SDS011;36212;48.838;9.142;2023-07-22T03:10:39;3.90;;;3.60;;
2544;SDS011;36212;48.838;9.142;2023-07-22T03:13:11;7.45;;;4.30;;
2544;SDS011;36212;48.838;9.142;2023-07-22T03:15:44;4.07;;;3.78;;
2544;SDS011;36212;48.838;9.142;2023-07-22T03:18:17;4.18;;;3.88;;
2544;SDS011;36212;48.838;9.142;2023-07-22T03:20:50;4.00;;;3.70;;
2544;SDS011;36212;48.838;9.142;2023-07-22T03:23:23;4.13;;;3.83;;
2544;SDS011;36212;48.838;9.142;2023-07-22T03:25:55;4.40;;;4.07;;
2544;SDS011;36212;48.838;9.142;2023-07-22T03:28:28;3.25;;;3.05;;
2544;SDS011;36212;48.838;9.142;2023-07-22T03:31:00;4.60;;;4.20;;
2544;SDS011;36212;48.838;9.142;2023-07-22T03:33:34;4.40;;;4.10;;
2544;SDS011;36212;48.838;9.142;2023-07-22T03:36:06;4.00;;;3.70;;
2544;SDS011;36212;48.838;9.142;2023-07-22T03:38:38;3.20;;;3.00;;
2544;SDS011;36212;48.838;9.142;2023-07-22T03:41:10;3.20;;;3.00;;
2544;SDS011;36212;48.838;9.142;2023-07-22T03:43:42;4.03;;;3.72;;
2544;SDS011;36212;48.838;9.142;2023-07-22T03:46:15;3.65;;;3.45;;
2544;SDS011;36212;48.838;9.142;2023-07-22T03:48:47;3.50;;;3.30;;
2544;SDS011;36212;48.838;9.142;2023-07-22T03:51:19;3.50;;;3.28;;
2544;SDS011;36212;48.838;9.142;2023-07-22T03:53:51;3.88;;;3.58;;
2544;SDS011;36212;48.838;9.142;2023-07-22T03:56:24;3.55;;;3.35;;
2544;SDS011;36212;48.838;9.142;2023-07-22T03:58:56;4.25;;;3.95;;
2544;SDS011;36212;48.838;9.142;2023-07-22T04:01:29;3.67;;;3.38;;
2544;SDS011;36212;48.838;9.142;2023-07-22T04:04:01;3.65;;;3.45;;
2544;SDS011;36212;48.838;9.142;2023-07-22T04:06:33;5.05;;;4.10;;
2544;SDS011;36212;48.838;9.142;2023-07-22T04:09:05;4.10;;;3.80;;
2544;SDS011;36212;48.838;9.142;2023-07-22T04:11:37;3.38;;;3.17;;
2544;SDS011;36212;48.838;9.142;2023-07-22T04:14:09;4.00;;;3.65;;
2544;SDS011;36212;48.838;9.142;2023-07-22T04:16:43;3.53;;;3.22;;
2544;SDS011;36212;48.838;9.142;2023-07-22T04:19:15;4.70;;;4.30;;
2544;SDS011;36212;48.838;9.142;2023-07-22T04:21:48;3.83;;;3.58;;
2544;SDS011;36212;48.838;9.142;2023-07-22T04:24:20;4.65;;;4.20;;
2544;SDS011;36212;48.838;9.142;2023-07-22T04:26:53;4.10;;;3.80;;
2544;SDS011;36212;48.838;9.142;2023-07-22T04:29:25;4.38;;;4.07;;
2544;SDS011;36212;48.838;9.142;2023-07-22T04:31:58;4.32;;;4.03;;
2544;SDS011;36212;48.838;9.142;2023-07-22T04:34:31;3.63;;;3.42;;
2544;SDS011;36212;48.838;9.142;2023-07-22T04:37:04;4.40;;;4.10;;
2544;SDS011;36212;48.838;9.142;2023-07-22T04:39:37;4.00;;;3.70;;
2544;SDS011;36212;48.838;9.142;2023-07-22T04:42:09;4.38;;;4.15;;
2544;SDS011;36212;48.838;9.142;2023-07-22T04:44:41;3.90;;;3.63;;
2544;SDS011;36212;48.838;9.142;2023-07-22T04:47:14;5.15;;;4.30;;
2544;SDS011;36212;48.838;9.142;2023-07-22T04:49:47;4.80;;;4.50;;
2544;SDS011;36212;48.838;9.142;2023-07-22T04:52:19;4.00;;;3.70;;
2544;SDS011;36212;48.838;9.142;2023-07-22T04:54:51;4.32;;;4.03;;
2544;SDS011;36212;48.838;9.142;2023-07-22T04:57:24;4.30;;;4.00;;
2544;SDS011;36212;48.838;9.142;2023-07-22T04:59:56;4.40;;;4.10;;
2544;SDS011;36212;48.838;9.142;2023-07-22T05:02:28;4.07;;;3.88;;
2544;SDS011;36212;48.838;9.142;2023-07-22T05:05:02;4.40;;;4.10;;
2544;SDS011;36212;48.838;9.142;2023-07-22T05:07:35;4.00;;;3.70;;
2544;SDS011;36212;48.838;9.142;2023-07-22T05:10:07;4.95;;;4.55;;
2544;SDS011;36212;48.838;9.142;2023-07-22T05:12:45;6.07;;;5.57;;
2544;SDS011;36212;48.838;9.142;2023-07-22T05:15:17;4.30;;;4.00;;
2544;SDS011;36212;48.838;9.142;2023-07-22T05:17:49;4.20;;;3.90;;
2544;SDS011;36212;48.838;9.142;2023-07-22T05:20:21;5.07;;;4.68;;
2544;SDS011;36212;48.838;9.142;2023-07-22T05:22:53;4.45;;;4.15;;
2544;SDS011;36212;48.838;9.142;2023-07-22T05:25:27;4.15;;;3.85;;
2544;SDS011;36212;48.838;9.142;2023-07-22T05:27:59;5.07;;;4.63;;
2544;SDS011;36212;48.838;9.142;2023-07-22T05:30:32;4.75;;;4.45;;
2544;SDS011;36212;48.838;9.142;2023-07-22T05:33:07;4.65;;;4.35;;
2544;SDS011;36212;48.838;9.142;2023-07-22T05:35:39;4.55;;;4.10;;
2544;SDS011;36212;48.838;9.142;2023-07-22T05:38:11;5.30;;;3.45;;
2544;SDS011;36212;48.838;9.142;2023-07-22T05:40:43;3.83;;;3.53;;
2544;SDS011;36212;48.838;9.142;2023-07-22T05:43:15;4.55;;;4.25;;
2544;SDS011;36212;48.838;9.142;2023-07-22T05:45:47;3.83;;;3.63;;
2544;SDS011;36212;48.838;9.142;2023-07-22T05:48:20;4.50;;;4.20;;
2544;SDS011;36212;48.838;9.142;2023-07-22T05:50:53;3.58;;;3.28;;
2544;SDS011;36212;48.838;9.142;2023-07-22T05:53:25;4.50;;;4.10;;
2544;SDS011;36212;48.838;9.142;2023-07-22T05:55:57;4.10;;;3.80;;
2544;SDS011;36212;48.838;9.142;2023-07-22T05:58:29;5.10;;;4.00;;
2544;SDS011;36212;48.838;9.142;2023-07-22T06:01:02;4.37;;;4.10;;
2544;SDS011;36212;48.838;9.142;2023-07-22T06:03:34;4.00;;;3.70;;
2544;SDS011;36212;48.838;9.142;2023-07-22T06:06:06;3.37;;;3.10;;
2544;SDS011;36212;48.838;9.142;2023-07-22T06:08:40;3.40;;;3.10;;
2544;SDS011;36212;48.838;9.142;2023-07-22T06:11:12;3.87;;;3.50;;
2544;SDS011;36212;48.838;9.142;2023-07-22T06:13:44;4.00;;;3.50;;
2544;SDS011;36212;48.838;9.142;2023-07-22T06:16:16;3.70;;;3.40;;
2544;SDS011;36212;48.838;9.142;2023-07-22T06:18:48;3.80;;;3.60;;
2544;SDS011;36212;48.838;9.142;2023-07-22T06:21:20;5.60;;;3.40;;
2544;SDS011;36212;48.838;9.142;2023-07-22T06:23:52;3.43;;;3.13;;
2544;SDS011;36212;48.838;9.142;2023-07-22T06:26:24;3.60;;;3.30;;
2544;SDS011;36212;48.838;9.142;2023-07-22T06:28:57;3.93;;;3.60;;
2544;SDS011;36212;48.838;9.142;2023-07-22T06:31:29;4.73;;;3.63;;
2544;SDS011;36212;48.838;9.142;2023-07-22T06:34:02;3.47;;;3.27;;
2544;SDS011;36212;48.838;9.142;2023-07-22T06:36:34;3.90;;;3.60;;
2544;SDS011;36212;48.838;9.142;2023-07-22T06:39:06;4.10;;;3.03;;
2544;SDS011;36212;48.838;9.142;2023-07-22T06:41:38;3.50;;;3.30;;
2544;SDS011;36212;48.838;9.142;2023-07-22T06:44:11;2.83;;;2.63;;
2544;SDS011;36212;48.838;9.142;2023-07-22T06:46:43;3.27;;;3.00;;
2544;SDS011;36212;48.838;9.142;2023-07-22T06:49:16;2.80;;;2.60;;
2544;SDS011;36212;48.838;9.142;2023-07-22T06:51:48;3.27;;;3.07;;
2544;SDS011;36212;48.838;9.142;2023-07-22T06:54:22;3.40;;;3.10;;
2544;SDS011;36212;48.838;9.142;2023-07-22T06:56:54;3.30;;;3.10;;
2544;SDS011;36212;48.838;9.142;2023-07-22T06:59:26;3.40;;;3.10;;
2544;SDS011;36212;48.838;9.142;2023-07-22T07:01:59;3.50;;;3.20;;
2544;SDS011;36212;48.838;9.142;2023-07-22T07:04:32;3.30;;;3.00;;
2544;SDS011;36212;48.838;9.142;2023-07-22T07:07:04;3.10;;;2.63;;
2544;SDS011;36212;48.838;9.142;2023-07-22T07:09:36;3.43;;;3.20;;
2544;SDS011;36212;48.838;9.142;2023-07-22T07:12:08;2.93;;;2.73;;
2544;SDS011;36212;48.838;9.142;2023-07-22T07:14:41;3.67;;;2.57;;
2544;SDS011;36212;48.838;9.142;2023-07-22T07:17:13;2.90;;;2.70;;
2544;SDS011;36212;48.838;9.142;2023-07-22T07:19:45;9.23;;;3.70;;
2544;SDS011;36212;48.838;9.142;2023-07-22T07:22:17;3.20;;;2.90;;
2544;SDS011;36212;48.838;9.142;2023-07-22T07:24:50;2.90;;;2.70;;
2544;SDS011;36212;48.838;9.142;2023-07-22T07:27:22;2.73;;;2.50;;
2544;SDS011;36212;48.838;9.142;2023-07-22T07:29:54;3.77;;;2.93;;
2544;SDS011;36212;48.838;9.142;2023-07-22T07:32:26;2.53;;;2.40;;
2544;SDS011;36212;48.838;9.142;2023-07-22T07:34:58;2.80;;;2.60;;
2544;SDS011;36212;48.838;9.142;2023-07-22T07:37:31;2.70;;;2.50;;
2544;SDS011;36212;48.838;9.142;2023-07-22T07:40:04;2.53;;;2.33;;
2544;SDS011;36212;48.838;9.142;2023-07-22T07:42:37;2.90;;;2.70;;
2544;SDS011;36212;48.838;9.142;2023-07-22T07:45:10;2.47;;;2.37;;
2544;SDS011;36212;48.838;9.142;2023-07-22T07:47:42;2.57;;;2.10;;
2544;SDS011;36212;48.838;9.142;2023-07-22T07:50:14;2.43;;;2.30;;
2544;SDS011;36212;48.838;9.142;2023-07-22T07:52:46;2.97;;;2.77;;
2544;SDS011;36212;48.838;9.142;2023-07-22T07:55:18;2.50;;;2.37;;
2544;SDS011;36212;48.838;9.142;2023-07-22T07:57:50;4.03;;;2.67;;
2544;SDS011;36212;48.838;9.142;2023-07-22T08:00:23;5.07;;;2.73;;
2544;SDS011;36212;48.838;9.142;2023-07-22T08:02:56;3.03;;;2.83;;
2544;SDS011;36212;48.838;9.142;2023-07-22T08:05:28;2.60;;;2.40;;
2544;SDS011;36212;48.838;9.142;2023-07-22T08:08:01;3.20;;;3.00;;
2544;SDS011;36212;48.838;9.142;2023-07-22T08:10:33;2.77;;;2.57;;
2544;SDS011;36212;48.838;9.142;2023-07-22T08:13:05;2.67;;;2.47;;
2544;SDS011;36212;48.838;9.142;2023-07-22T08:15:37;3.40;;;2.73;;
2544;SDS011;36212;48.838;9.142;2023-07-22T08:18:11;2.70;;;2.50;;
2544;SDS011;36212;48.838;9.142;2023-07-22T08:20:44;3.37;;;2.50;;
2544;SDS011;36212;48.838;9.142;2023-07-22T08:23:20;2.63;;;2.43;;
2544;SDS011;36212;48.838;9.142;2023-07-22T08:25:53;2.43;;;2.33;;
2544;SDS011;36212;48.838;9.142;2023-07-22T08:28:25;2.63;;;2.43;;
2544;SDS011;36212;48.838;9.142;2023-07-22T08:30:57;2.80;;;2.60;;
2544;SDS011;36212;48.838;9.142;2023-07-22T08:33:31;2.77;;;2.57;;
2544;SDS011;36212;48.838;9.142;2023-07-22T08:36:12;2.33;;;2.13;;
2544;SDS011;36212;48.838;9.142;2023-07-22T08:38:44;2.93;;;2.73;;
2544;SDS011;36212;48.838;9.142;2023-07-22T08:41:17;3.10;;;2.90;;
2544;SDS011;36212;48.838;9.142;2023-07-22T08:43:52;2.60;;;2.40;;
2544;SDS011;36212;48.838;9.142;2023-07-22T08:46:30;3.20;;;2.50;;
2544;SDS011;36212;48.838;9.142;2023-07-22T08:49:06;2.93;;;2.73;;
2544;SDS011;36212;48.838;9.142;2023-07-22T08:51:40;2.90;;;2.50;;
2544;SDS011;36212;48.838;9.142;2023-07-22T08:54:14;2.93;;;2.73;;
2544;SDS011;36212;48.838;9.142;2023-07-22T08:56:46;2.70;;;2.50;;
2544;SDS011;36212;48.838;9.142;2023-07-22T08:59:20;4.07;;;2.50;;
2544;SDS011;36212;48.838;9.142;2023-07-22T09:01:54;4.23;;;2.40;;
2544;SDS011;36212;48.838;9.142;2023-07-22T09:04:28;3.27;;;2.30;;
2544;SDS011;36212;48.838;9.142;2023-07-22T09:07:02;2.73;;;2.50;;
2544;SDS011;36212;48.838;9.142;2023-07-22T09:09:35;3.50;;;2.60;;
2544;SDS011;36212;48.838;9.142;2023-07-22T09:12:08;2.80;;;2.53;;
2544;SDS011;36212;48.838;9.142;2023-07-22T09:14:41;2.67;;;2.47;;
2544;SDS011;36212;48.838;9.142;2023-07-22T09:17:15;3.07;;;2.80;;
2544;SDS011;36212;48.838;9.142;2023-07-22T09:19:51;2.57;;;2.37;;
2544;SDS011;36212;48.838;9.142;2023-07-22T09:22:25;2.57;;;2.27;;
2544;SDS011;36212;48.838;9.142;2023-07-22T09:25:15;2.63;;;2.43;;
2544;SDS011;36212;48.838;9.142;2023-07-22T09:27:54;2.70;;;2.50;;
2544;SDS011;36212;48.838;9.142;2023-07-22T09:30:36;3.13;;;2.93;;
2544;SDS011;36212;48.838;9.142;2023-07-22T09:33:21;2.67;;;2.47;;
2544;SDS011;36212;48.838;9.142;2023-07-22T09:35:54;2.33;;;2.23;;
2544;SDS011;36212;48.838;9.142;2023-07-22T09:38:26;3.03;;;2.83;;
2544;SDS011;36212;48.838;9.142;2023-07-22T09:40:58;2.60;;;2.40;;
2544;SDS011;36212;48.838;9.142;2023-07-22T09:43:31;2.40;;;2.20;;
2544;SDS011;36212;48.838;9.142;2023-07-22T09:46:10;2.10;;;2.00;;
2544;SDS011;36212;48.838;9.142;2023-07-22T09:48:45;2.50;;;2.00;;
2544;SDS011;36212;48.838;9.142;2023-07-22T09:51:18;3.23;;;2.13;;
2544;SDS011;36212;48.838;9.142;2023-07-22T09:53:59;2.23;;;2.13;;
2544;SDS011;36212;48.838;9.142;2023-07-22T09:56:42;2.20;;;2.10;;
2544;SDS011;36212;48.838;9.142;2023-07-22T09:59:20;2.03;;;1.93;;
2544;SDS011;36212;48.838;9.142;2023-07-22T10:01:58;2.50;;;2.30;;
2544;SDS011;36212;48.838;9.142;2023-07-22T10:04:36;2.13;;;2.03;;
2544;SDS011;36212;48.838;9.142;2023-07-22T10:07:10;2.20;;;2.10;;
2544;SDS011;36212;48.838;9.142;2023-07-22T10:09:45;2.10;;;2.00;;
2544;SDS011;36212;48.838;9.142;2023-07-22T10:12:19;2.47;;;1.90;;
2544;SDS011;36212;48.838;9.142;2023-07-22T10:14:51;2.13;;;1.87;;
2544;SDS011;36212;48.838;9.142;2023-07-22T10:17:25;2.10;;;2.00;;
2544;SDS011;36212;48.838;9.142;2023-07-22T10:19:59;3.30;;;2.43;;
2544;SDS011;36212;48.838;9.142;2023-07-22T10:22:39;2.00;;;1.90;;
2544;SDS011;36212;48.838;9.142;2023-07-22T10:25:15;1.83;;;1.73;;
2544;SDS011;36212;48.838;9.142;2023-07-22T10:27:51;2.00;;;1.90;;
2544;SDS011;36212;48.838;9.142;2023-07-22T10:30:24;3.37;;;1.83;;
2544;SDS011;36212;48.838;9.142;2023-07-22T10:32:56;2.50;;;2.40;;
2544;SDS011;36212;48.838;9.142;2023-07-22T10:38:11;3.90;;;2.23;;
2544;SDS011;36212;48.838;9.142;2023-07-22T10:40:54;2.30;;;2.10;;
2544;SDS011;36212;48.838;9.142;2023-07-22T10:43:31;2.17;;;2.03;;
2544;SDS011;36212;48.838;9.142;2023-07-22T10:46:06;2.20;;;2.00;;
2544;SDS011;36212;48.838;9.142;2023-07-22T10:48:43;3.63;;;2.00;;
2544;SDS011;36212;48.838;9.142;2023-07-22T10:51:15;2.47;;;2.27;;
2544;SDS011;36212;48.838;9.142;2023-07-22T10:53:49;2.57;;;2.37;;
2544;SDS011;36212;48.838;9.142;2023-07-22T10:56:22;3.07;;;2.47;;
2544;SDS011;36212;48.838;9.142;2023-07-22T10:58:59;2.47;;;2.37;;
2544;SDS011;36212;48.838;9.142;2023-07-22T11:01:34;2.37;;;2.10;;
2544;SDS011;36212;48.838;9.142;2023-07-22T11:07:33;2.00;;;1.90;;
2544;SDS011;36212;48.838;9.142;2023-07-22T11:10:15;1.97;;;1.87;;
2544;SDS011;36212;48.838;9.142;2023-07-22T11:12:49;2.57;;;2.17;;
2544;SDS011;36212;48.838;9.142;2023-07-22T11:15:23;2.67;;;1.80;;
2544;SDS011;36212;48.838;9.142;2023-07-22T11:18:00;1.83;;;1.73;;
2544;SDS011;36212;48.838;9.142;2023-07-22T11:20:33;2.10;;;1.90;;
2544;SDS011;36212;48.838;9.142;2023-07-22T11:23:06;1.80;;;1.70;;
2544;SDS011;36212;48.838;9.142;2023-07-22T11:25:39;2.57;;;2.30;;
2544;SDS011;36212;48.838;9.142;2023-07-22T11:28:13;3.07;;;1.80;;
2544;SDS011;36212;48.838;9.142;2023-07-22T11:30:45;1.80;;;1.70;;
2544;SDS011;36212;48.838;9.142;2023-07-22T11:33:18;1.77;;;1.57;;
2544;SDS011;36212;48.838;9.142;2023-07-22T11:35:50;1.87;;;1.77;;
2544;SDS011;36212;48.838;9.142;2023-07-22T11:38:22;2.10;;;2.00;;
2544;SDS011;36212;48.838;9.142;2023-07-22T11:40:55;1.80;;;1.70;;
2544;SDS011;36212;48.838;9.142;2023-07-22T11:43:28;1.97;;;1.77;;
2544;SDS011;36212;48.838;9.142;2023-07-22T11:46:04;3.90;;;2.10;;
2544;SDS011;36212;48.838;9.142;2023-07-22T11:48:37;2.13;;;2.03;;
2544;SDS011;36212;48.838;9.142;2023-07-22T11:51:09;1.90;;;1.80;;
2544;SDS011;36212;48.838;9.142;2023-07-22T11:53:41;2.10;;;2.00;;
2544;SDS011;36212;48.838;9.142;2023-07-22T11:56:21;2.90;;;2.00;;
2544;SDS011;36212;48.838;9.142;2023-07-22T11:58:56;2.30;;;2.10;;
2544;SDS011;36212;48.838;9.142;2023-07-22T12:01:31;2.20;;;2.00;;
2544;SDS011;36212;48.838;9.142;2023-07-22T12:04:09;1.90;;;1.80;;
2544;SDS011;36212;48.838;9.142;2023-07-22T12:06:43;2.00;;;1.90;;
2544;SDS011;36212;48.838;9.142;2023-07-22T12:09:15;2.50;;;2.23;;
2544;SDS011;36212;48.838;9.142;2023-07-22T12:11:49;2.70;;;2.20;;
2544;SDS011;36212;48.838;9.142;2023-07-22T12:14:33;2.07;;;1.97;;
2544;SDS011;36212;48.838;9.142;2023-07-22T12:17:10;1.90;;;1.80;;
2544;SDS011;36212;48.838;9.142;2023-07-22T12:19:52;3.03;;;1.97;;
2544;SDS011;36212;48.838;9.142;2023-07-22T12:22:26;2.33;;;2.23;;
2544;SDS011;36212;48.838;9.142;2023-07-22T12:24:58;2.67;;;2.07;;
2544;SDS011;36212;48.838;9.142;2023-07-22T12:27:30;2.00;;;1.80;;
2544;SDS011;36212;48.838;9.142;2023-07-22T12:30:03;1.97;;;1.87;;
2544;SDS011;36212;48.838;9.142;2023-07-22T12:32:37;3.03;;;2.07;;
2544;SDS011;36212;48.838;9.142;2023-07-22T12:35:10;1.63;;;1.50;;
2544;SDS011;36212;48.838;9.142;2023-07-22T12:37:43;2.63;;;2.23;;
2544;SDS011;36212;48.838;9.142;2023-07-22T12:40:16;2.37;;;2.27;;
2544;SDS011;36212;48.838;9.142;2023-07-22T12:42:48;2.70;;;2.50;;
2544;SDS011;36212;48.838;9.142;2023-07-22T12:45:20;2.17;;;2.07;;
2544;SDS011;36212;48.838;9.142;2023-07-22T12:47:53;2.10;;;2.00;;
2544;SDS011;36212;48.838;9.142;2023-07-22T12:50:26;2.43;;;2.33;;
2544;SDS011;36212;48.838;9.142;2023-07-22T12:52:59;2.10;;;2.00;;
2544;SDS011;36212;48.838;9.142;2023-07-22T12:55:32;2.23;;;2.13;;
2544;SDS011;36212;48.838;9.142;2023-07-22T12:58:04;2.20;;;2.03;;
2544;SDS011;36212;48.838;9.142;2023-07-22T13:00:36;2.30;;;2.20;;
2544;SDS011;36212;48.838;9.142;2023-07-22T13:03:08;2.20;;;2.10;;
2544;SDS011;36212;48.838;9.142;2023-07-22T13:05:40;2.20;;;2.10;;
2544;SDS011;36212;48.838;9.142;2023-07-22T13:08:12;2.73;;;1.90;;
2544;SDS011;36212;48.838;9.142;2023-07-22T13:10:44;2.43;;;2.23;;
2544;SDS011;36212;48.838;9.142;2023-07-22T13:13:18;2.43;;;2.23;;
2544;SDS011;36212;48.838;9.142;2023-07-22T13:15:50;2.70;;;2.50;;
2544;SDS011;36212;48.838;9.142;2023-07-22T13:18:22;2.60;;;2.40;;
2544;SDS011;36212;48.838;9.142;2023-07-22T13:20:55;2.63;;;2.50;;
2544;SDS011;36212;48.838;9.142;2023-07-22T13:23:27;2.27;;;2.17;;
2544;SDS011;36212;48.838;9.142;2023-07-22T13:25:59;2.03;;;1.93;;
2544;SDS011;36212;48.838;9.142;2023-07-22T13:28:31;2.30;;;2.20;;
2544;SDS011;36212;48.838;9.142;2023-07-22T13:31:03;2.90;;;2.70;;
2544;SDS011;36212;48.838;9.142;2023-07-22T13:33:36;3.60;;;2.50;;
2544;SDS011;36212;48.838;9.142;2023-07-22T13:36:08;6.83;;;2.70;;
2544;SDS011;36212;48.838;9.142;2023-07-22T13:38:40;2.53;;;2.33;;
2544;SDS011;36212;48.838;9.142;2023-07-22T13:41:12;2.90;;;2.60;;
2544;SDS011;36212;48.838;9.142;2023-07-22T13:43:45;2.40;;;2.30;;
2544;SDS011;36212;48.838;9.142;2023-07-22T13:46:17;4.47;;;2.53;;
2544;SDS011;36212;48.838;9.142;2023-07-22T13:48:49;3.00;;;2.80;;
2544;SDS011;36212;48.838;9.142;2023-07-22T13:51:21;2.80;;;2.60;;
2544;SDS011;36212;48.838;9.142;2023-07-22T13:53:54;2.77;;;2.53;;
2544;SDS011;36212;48.838;9.142;2023-07-22T13:56:28;2.37;;;2.27;;
2544;SDS011;36212;48.838;9.142;2023-07-22T13:59:01;2.60;;;2.33;;
2544;SDS011;36212;48.838;9.142;2023-07-22T14:01:36;2.53;;;2.37;;
2544;SDS011;36212;48.838;9.142;2023-07-22T14:04:08;2.93;;;2.67;;
2544;SDS011;36212;48.838;9.142;2023-07-22T14:06:41;2.87;;;2.77;;
2544;SDS011;36212;48.838;9.142;2023-07-22T14:09:13;2.80;;;2.60;;
2544;SDS011;36212;48.838;9.142;2023-07-22T14:11:45;2.70;;;2.50;;
2544;SDS011;36212;48.838;9.142;2023-07-22T14:14:18;2.90;;;2.70;;
2544;SDS011;36212;48.838;9.142;2023-07-22T14:16:50;2.60;;;2.40;;
2544;SDS011;36212;48.838;9.142;2023-07-22T14:19:23;2.83;;;2.57;;
2544;SDS011;36212;48.838;9.142;2023-07-22T14:21:55;2.50;;;2.40;;
2544;SDS011;36212;48.838;9.142;2023-07-22T14:24:27;2.77;;;2.60;;
2544;SDS011;36212;48.838;9.142;2023-07-22T14:27:00;2.57;;;2.37;;
2544;SDS011;36212;48.838;9.142;2023-07-22T14:29:32;2.90;;;2.70;;
2544;SDS011;36212;48.838;9.142;2023-07-22T14:32:04;2.77;;;2.57;;
2544;SDS011;36212;48.838;9.142;2023-07-22T14:34:37;2.77;;;2.57;;
2544;SDS011;36212;48.838;9.142;2023-07-22T14:37:10;2.63;;;2.53;;
2544;SDS011;36212;48.838;9.142;2023-07-22T14:39:43;3.17;;;2.97;;
2544;SDS011;36212;48.838;9.142;2023-07-22T14:42:15;2.70;;;2.50;;
2544;SDS011;36212;48.838;9.142;2023-07-22T14:44:47;2.50;;;2.40;;
2544;SDS011;36212;48.838;9.142;2023-07-22T14:47:19;2.80;;;2.60;;
2544;SDS011;36212;48.838;9.142;2023-07-22T14:49:52;3.17;;;2.97;;
2544;SDS011;36212;48.838;9.142;2023-07-22T14:52:24;2.80;;;2.60;;
2544;SDS011;36212;48.838;9.142;2023-07-22T14:54:56;3.00;;;2.33;;
2544;SDS011;36212;48.838;9.142;2023-07-22T14:57:28;2.90;;;2.70;;
2544;SDS011;36212;48.838;9.142;2023-07-22T15:00:03;2.60;;;2.40;;
2544;SDS011;36212;48.838;9.142;2023-07-22T15:02:36;2.80;;;2.70;;
2544;SDS011;36212;48.838;9.142;2023-07-22T15:05:09;3.93;;;2.70;;
2544;SDS011;36212;48.838;9.142;2023-07-22T15:07:42;3.13;;;2.87;;
2544;SDS011;36212;48.838;9.142;2023-07-22T15:10:14;3.17;;;2.90;;
2544;SDS011;36212;48.838;9.142;2023-07-22T15:12:46;2.97;;;2.77;;
2544;SDS011;36212;48.838;9.142;2023-07-22T15:15:21;3.20;;;3.00;;
2544;SDS011;36212;48.838;9.142;2023-07-22T15:17:53;3.60;;;3.30;;
2544;SDS011;36212;48.838;9.142;2023-07-22T15:20:25;3.93;;;3.63;;
2544;SDS011;36212;48.838;9.142;2023-07-22T15:22:57;3.07;;;2.87;;
2544;SDS011;36212;48.838;9.142;2023-07-22T15:25:30;2.80;;;2.60;;
2544;SDS011;36212;48.838;9.142;2023-07-22T15:28:03;3.00;;;2.80;;
2544;SDS011;36212;48.838;9.142;2023-07-22T15:30:35;2.83;;;2.63;;
2544;SDS011;36212;48.838;9.142;2023-07-22T15:33:08;3.23;;;3.03;;
2544;SDS011;36212;48.838;9.142;2023-07-22T15:35:40;3.23;;;3.03;;
2544;SDS011;36212;48.838;9.142;2023-07-22T15:38:12;3.07;;;2.77;;
2544;SDS011;36212;48.838;9.142;2023-07-22T15:40:44;4.33;;;3.20;;
2544;SDS011;36212;48.838;9.142;2023-07-22T15:43:17;5.20;;;4.40;;